createdAt,value
2023-04-27T00:03:36.041Z,101239.64
2023-04-27T00:06:05.592Z,101243.07
2023-04-27T00:08:34.970Z,101241.81
2023-04-27T00:11:03.908Z,101239.30
2023-04-27T00:13:32.668Z,101237.52
2023-04-27T00:16:01.548Z,101238.78
2023-04-27T00:18:31.330Z,101241.65
2023-04-27T00:21:00.129Z,101243.98
2023-04-27T00:23:28.740Z,101240.40
2023-04-27T01:36:49.829Z,101212.85
2023-04-27T01:39:17.930Z,101214.99
2023-04-27T01:41:47.195Z,101214.81
2023-04-27T01:44:15.578Z,101204.62
2023-04-27T01:46:43.754Z,101205.16
2023-04-27T01:49:13.341Z,101209.98
2023-04-27T01:51:42.548Z,101211.25
2023-04-27T01:54:11.404Z,101212.68
2023-04-27T01:56:40.456Z,101208.03
2023-04-27T01:59:09.259Z,101210.36
2023-04-27T02:01:38.824Z,101214.64
2023-04-27T02:04:07.803Z,101221.44
2023-04-27T02:06:36.238Z,101216.80
2023-04-27T02:09:04.468Z,101209.98
2023-04-27T02:11:33.226Z,101207.66
2023-04-27T02:14:01.354Z,101203.02
2023-04-27T02:16:30.138Z,101205.16
2023-04-27T02:18:59.269Z,101203.73
2023-04-27T02:21:27.509Z,101201.42
2023-04-27T02:23:56.527Z,101201.42
2023-04-27T02:26:25.703Z,101198.54
2023-04-27T02:28:54.096Z,101196.37
2023-04-27T02:31:23.135Z,101195.30
2023-04-27T02:33:51.460Z,101195.83
2023-04-27T02:36:20.268Z,101193.69
2023-04-27T02:38:49.016Z,101198.52
2023-04-27T02:41:17.726Z,101197.97
2023-04-27T02:43:45.930Z,101203.87
2023-04-27T02:46:14.197Z,101197.44
2023-04-27T02:48:42.936Z,101196.90
2023-04-27T02:51:11.856Z,101192.44
2023-04-27T02:53:40.130Z,101192.79
2023-04-27T02:56:08.350Z,101194.39
2023-04-27T02:58:37.528Z,101196.54
2023-04-27T03:01:06.953Z,101199.58
2023-04-27T03:03:36.807Z,101199.75
2023-04-27T03:06:06.227Z,101197.41
2023-04-27T03:08:34.930Z,101194.73
2023-04-27T03:11:03.561Z,101194.02
2023-04-27T03:13:32.689Z,101197.23
2023-04-27T03:16:00.813Z,101195.62
2023-04-27T03:18:29.518Z,101195.97
2023-04-27T03:21:06.097Z,101193.11
2023-04-27T03:23:35.495Z,101198.30
2023-04-27T03:26:12.450Z,101192.73
2023-04-27T03:28:42.057Z,101193.46
2023-04-27T03:31:16.228Z,101195.23
2023-04-27T03:33:44.662Z,101195.59
2023-04-27T03:36:13.444Z,101198.27
2023-04-27T03:38:43.204Z,101200.59
2023-04-27T03:41:12.781Z,101202.19
2023-04-27T03:43:42.243Z,101197.55
2023-04-27T03:46:10.495Z,101198.25
2023-04-27T03:48:38.740Z,101193.95
2023-04-27T03:51:08.516Z,101191.81
2023-04-27T03:53:37.286Z,101189.31
2023-04-27T03:56:06.185Z,101190.72
2023-04-27T03:58:34.313Z,101186.45
2023-04-27T04:01:02.451Z,101181.96
2023-04-27T04:03:30.911Z,101178.93
2023-04-27T04:05:59.506Z,101181.42
2023-04-27T04:08:28.570Z,101181.25
2023-04-27T04:10:57.461Z,101180.88
2023-04-27T04:13:25.985Z,101180.33
2023-04-27T04:16:08.800Z,101178.19
2023-04-27T04:18:37.896Z,101181.40
2023-04-27T04:21:06.259Z,101180.14
2023-04-27T04:23:34.449Z,101179.59
2023-04-27T04:26:03.306Z,101179.60
2023-04-27T04:28:31.431Z,101182.27
2023-04-27T04:31:03.315Z,101180.65
2023-04-27T04:33:33.149Z,101182.42
2023-04-27T04:36:06.077Z,101183.66
2023-04-27T04:38:34.948Z,101185.05
2023-04-27T04:41:03.208Z,101188.25
2023-04-27T04:43:32.350Z,101191.63
2023-04-27T04:46:00.611Z,101194.65
2023-04-27T04:48:28.814Z,101194.46
2023-04-27T04:50:57.414Z,101193.20
2023-04-27T04:53:26.114Z,101195.52
2023-04-27T04:55:54.537Z,101194.27
2023-04-27T04:58:22.911Z,101192.47
2023-04-27T05:00:51.616Z,101193.91
2023-04-27T05:03:20.547Z,101197.63
2023-04-27T05:05:49.690Z,101199.04
2023-04-27T05:08:17.924Z,101200.62
2023-04-27T05:10:54.072Z,101199.17
2023-04-27T05:13:22.928Z,101202.91
2023-04-27T05:15:51.872Z,101207.55
2023-04-27T05:18:20.533Z,101212.01
2023-04-27T05:20:49.558Z,101211.48
2023-04-27T05:23:17.886Z,101214.68
2023-04-27T05:25:47.152Z,101212.01
2023-04-27T05:28:15.836Z,101215.75
2023-04-27T05:30:45.149Z,101220.75
2023-04-27T05:33:13.895Z,101221.83
2023-04-27T05:35:42.700Z,101231.45
2023-04-27T05:38:10.792Z,101231.46
2023-04-27T05:40:39.389Z,101235.04
2023-04-27T05:43:08.459Z,101238.61
2023-04-27T05:45:40.045Z,101241.27
2023-04-27T05:48:09.067Z,101244.13
2023-04-27T05:50:37.425Z,101246.27
2023-04-27T05:53:05.895Z,101249.13
2023-04-27T05:55:34.497Z,101250.94
2023-04-27T05:58:08.756Z,101253.96
2023-04-27T06:00:38.434Z,101256.29
2023-04-27T06:03:06.943Z,101255.58
2023-04-27T06:05:35.898Z,101259.53
2023-04-27T06:08:04.506Z,101256.33
2023-04-27T06:10:33.204Z,101261.35
2023-04-27T06:13:01.308Z,101261.19
2023-04-27T06:15:29.806Z,101261.75
2023-04-27T06:17:57.998Z,101257.66
2023-04-27T06:20:26.131Z,101258.59
2023-04-27T06:22:54.397Z,101255.08
2023-04-27T06:25:24.450Z,101255.27
2023-04-27T06:27:55.870Z,101255.13
2023-04-27T06:30:25.175Z,101253.71
2023-04-27T06:32:53.622Z,101248.20
2023-04-27T06:35:22.713Z,101240.38
2023-04-27T06:37:50.929Z,101237.18
2023-04-27T06:40:19.173Z,101232.56
2023-04-27T06:42:47.805Z,101229.19
2023-04-27T06:45:16.227Z,101226.16
2023-04-27T06:47:44.494Z,101226.34
2023-04-27T06:50:14.548Z,101231.54
2023-04-27T06:52:42.765Z,101239.96
2023-04-27T06:55:11.280Z,101248.02
2023-04-27T06:57:39.620Z,101248.58
2023-04-27T07:00:08.280Z,101253.79
2023-04-27T07:02:36.598Z,101261.48
2023-04-27T07:05:06.263Z,101266.85
2023-04-27T07:07:34.615Z,101271.50
2023-04-27T07:10:03.298Z,101269.52
2023-04-27T07:12:31.650Z,101270.79
2023-04-27T07:14:59.824Z,101268.99
2023-04-27T07:17:28.165Z,101270.77
2023-04-27T07:19:56.551Z,101267.88
2023-04-27T07:22:25.283Z,101267.17
2023-04-27T07:24:53.510Z,101267.48
2023-04-27T07:27:21.864Z,101264.94
2023-04-27T07:29:50.147Z,101264.36
2023-04-27T07:32:18.472Z,101268.23
2023-04-27T07:34:53.590Z,101265.27
2023-04-27T07:37:26.701Z,101266.14
2023-04-27T07:39:55.285Z,101266.64
2023-04-27T07:42:23.874Z,101268.39
2023-04-27T07:44:52.793Z,101268.02
2023-04-27T07:47:21.395Z,101267.12
2023-04-27T07:49:49.716Z,101269.42
2023-04-27T07:52:18.494Z,101265.29
2023-04-27T07:54:47.307Z,101266.67
2023-04-27T07:57:16.293Z,101262.31
2023-04-27T07:59:45.469Z,101261.52
2023-04-27T08:02:19.188Z,101265.35
2023-04-27T08:04:50.481Z,101262.54
2023-04-27T08:07:20.568Z,101258.85
2023-04-27T08:09:52.305Z,101263.19
2023-04-27T08:12:20.776Z,101264.67
2023-04-27T08:14:49.829Z,101263.77
2023-04-27T08:17:17.990Z,101260.17
2023-04-27T08:19:46.295Z,101261.36
2023-04-27T08:22:14.953Z,101258.80
2023-04-27T08:24:43.759Z,101262.56
2023-04-27T08:27:12.394Z,101259.50
2023-04-27T08:29:49.417Z,101261.29
2023-04-27T08:32:18.694Z,101263.08
2023-04-27T08:34:47.129Z,101264.52
2023-04-27T08:37:16.350Z,101264.73
2023-04-27T08:39:46.934Z,101266.35
2023-04-27T08:42:16.244Z,101272.70
2023-04-27T08:44:45.051Z,101273.14
2023-04-27T08:47:13.325Z,101275.34
2023-04-27T08:49:41.649Z,101275.57
2023-04-27T08:52:17.773Z,101277.95
2023-04-27T08:54:45.905Z,101277.41
2023-04-27T08:57:15.168Z,101280.90
2023-04-27T08:59:43.631Z,101279.91
2023-04-27T09:02:22.217Z,101280.48
2023-04-27T09:04:51.256Z,101286.83
2023-04-27T09:07:20.122Z,101288.81
2023-04-27T09:09:49.070Z,101285.35
2023-04-27T09:12:22.247Z,101285.56
2023-04-27T09:15:01.954Z,101285.54
2023-04-27T09:17:31.878Z,101289.35
2023-04-27T09:20:07.964Z,101281.20
2023-04-27T09:22:45.728Z,101281.14
2023-04-27T09:25:31.758Z,101280.45
2023-04-27T09:28:01.976Z,101282.30
2023-04-27T09:30:30.325Z,101278.59
2023-04-27T09:33:02.129Z,101279.58
2023-04-27T09:35:32.963Z,101285.84
2023-04-27T09:38:01.698Z,101288.87
2023-04-27T09:40:30.388Z,101285.45
2023-04-27T09:43:01.329Z,101290.52
2023-04-27T09:45:29.980Z,101288.40
2023-04-27T09:47:58.881Z,101286.23
2023-04-27T09:50:27.379Z,101285.36
2023-04-27T09:52:56.075Z,101279.61
2023-04-27T09:55:59.595Z,101281.76
2023-04-27T09:58:27.762Z,101285.58
2023-04-27T10:01:42.515Z,101286.55
2023-04-27T10:04:46.153Z,101287.95
2023-04-27T10:07:15.763Z,101286.55
2023-04-27T10:09:47.384Z,101285.75
2023-04-27T10:12:24.356Z,101284.05
2023-04-27T10:14:58.793Z,101286.02
2023-04-27T10:17:33.482Z,101283.29
2023-04-27T10:20:05.191Z,101282.59
2023-04-27T10:22:42.413Z,101277.74
2023-04-27T10:25:28.366Z,101279.92
2023-04-27T10:28:01.945Z,101285.61
2023-04-27T10:30:38.724Z,101281.40
2023-04-27T10:33:09.492Z,101286.29
2023-04-27T10:35:43.611Z,101279.77
2023-04-27T10:38:17.619Z,101278.30
2023-04-27T10:40:57.930Z,101279.58
2023-04-27T10:43:27.972Z,101280.60
2023-04-27T10:46:07.857Z,101276.77
2023-04-27T10:48:36.157Z,101272.98
2023-04-27T10:51:04.868Z,101275.54
2023-04-27T10:53:37.427Z,101267.92
2023-04-27T10:56:06.020Z,101263.60
2023-04-27T11:01:10.138Z,101262.70
2023-04-27T11:03:38.590Z,101255.33
2023-04-27T11:06:07.600Z,101255.35
2023-04-27T11:08:45.088Z,101257.10
2023-04-27T11:11:17.323Z,101255.27
2023-04-27T11:13:51.976Z,101252.98
2023-04-27T11:16:28.215Z,101252.48
2023-04-27T11:19:04.162Z,101252.89
2023-04-27T11:21:32.985Z,101249.08
2023-04-27T11:24:07.234Z,101250.23
2023-04-27T11:26:35.619Z,101247.38
2023-04-27T11:29:10.164Z,101244.25
2023-04-27T11:31:40.232Z,101238.21
2023-04-27T11:34:16.265Z,101236.67
2023-04-27T11:36:44.905Z,101234.45
2023-04-27T11:39:19.685Z,101230.36
2023-04-27T11:41:48.205Z,101230.25
2023-04-27T11:44:16.448Z,101223.02
2023-04-27T11:46:45.617Z,101230.02
2023-04-27T11:49:14.094Z,101222.48
2023-04-27T11:51:43.254Z,101218.59
2023-04-27T11:54:12.214Z,101215.03
2023-04-27T11:56:42.987Z,101210.53
2023-04-27T11:59:20.701Z,101209.20
2023-04-27T12:01:49.471Z,101205.12
2023-04-27T12:04:18.824Z,101210.13
2023-04-27T12:06:48.341Z,101204.42
2023-04-27T12:09:16.573Z,101204.20
2023-04-27T12:11:44.971Z,101204.92
2023-04-27T12:14:14.106Z,101205.53
2023-04-27T12:16:44.411Z,101199.67
2023-04-27T12:19:12.578Z,101198.98
2023-04-27T12:21:40.729Z,101197.56
2023-04-27T12:24:09.719Z,101196.97
2023-04-27T12:26:39.813Z,101203.16
2023-04-27T12:29:08.450Z,101197.95
2023-04-27T12:31:36.930Z,101203.75
2023-04-27T12:34:05.758Z,101200.61
2023-04-27T12:36:35.270Z,101194.46
2023-04-27T12:39:22.759Z,101191.86
2023-04-27T12:41:51.972Z,101195.05
2023-04-27T12:44:22.194Z,101192.52
2023-04-27T12:46:51.363Z,101192.68
2023-04-27T12:49:21.963Z,101189.93
2023-04-27T12:51:50.617Z,101193.98
2023-04-27T12:54:19.605Z,101191.27
2023-04-27T12:56:47.898Z,101186.52
2023-04-27T12:59:16.204Z,101188.25
2023-04-27T13:01:44.744Z,101189.63
2023-04-27T13:04:19.711Z,101186.34
2023-04-27T13:06:49.128Z,101183.61
2023-04-27T13:09:18.234Z,101180.60
2023-04-27T13:11:47.627Z,101182.27
2023-04-27T13:14:16.216Z,101178.12
2023-04-27T13:16:45.739Z,101178.88
2023-04-27T13:19:14.936Z,101177.14
2023-04-27T13:21:43.936Z,101175.74
2023-04-27T13:24:12.984Z,101171.98
2023-04-27T13:26:41.598Z,101171.36
2023-04-27T13:29:10.336Z,101167.58
2023-04-27T13:31:38.730Z,101166.15
2023-04-27T13:34:09.801Z,101163.33
2023-04-27T13:36:38.459Z,101165.88
2023-04-27T13:39:07.143Z,101168.92
2023-04-27T13:41:36.484Z,101167.20
2023-04-27T13:44:05.205Z,101169.81
2023-04-27T13:46:34.335Z,101169.99
2023-04-27T13:49:02.700Z,101169.50
2023-04-27T13:51:31.058Z,101168.98
2023-04-27T13:53:59.786Z,101166.46
2023-04-27T13:56:28.198Z,101161.23
2023-04-27T13:58:56.556Z,101158.58
2023-04-27T14:01:25.817Z,101154.61
2023-04-27T14:03:54.754Z,101149.38
2023-04-27T14:06:23.637Z,101151.89
2023-04-27T14:08:55.041Z,101148.83
2023-04-27T14:11:25.043Z,101149.00
2023-04-27T14:13:53.191Z,101150.52
2023-04-27T14:16:22.305Z,101140.88
2023-04-27T14:18:52.122Z,101139.79
2023-04-27T14:21:20.492Z,101132.16
2023-04-27T14:23:49.566Z,101126.71
2023-04-27T14:26:18.259Z,101126.02
2023-04-27T14:28:47.219Z,101120.63
2023-04-27T14:31:18.825Z,101122.90
2023-04-27T14:33:47.456Z,101118.73
2023-04-27T14:36:16.307Z,101121.89
2023-04-27T14:38:45.582Z,101118.88
2023-04-27T14:41:14.288Z,101118.70
2023-04-27T14:43:43.582Z,101115.24
2023-04-27T14:48:48.822Z,101107.48
2023-04-27T14:51:17.247Z,101104.30
2023-04-27T14:53:46.092Z,101100.41
2023-04-27T14:56:14.482Z,101101.43
2023-04-27T14:58:43.403Z,101100.58
2023-04-27T15:01:12.183Z,101099.70
2023-04-27T15:03:42.130Z,101095.95
2023-04-27T15:06:10.529Z,101092.42
2023-04-27T15:08:39.120Z,101092.79
2023-04-27T15:11:07.734Z,101090.15
2023-04-27T15:13:36.810Z,101081.52
2023-04-27T15:16:05.695Z,101080.36
2023-04-27T15:18:33.914Z,101080.93
2023-04-27T15:21:02.567Z,101082.07
2023-04-27T15:23:32.013Z,101079.52
2023-04-27T15:26:00.701Z,101070.80
2023-04-27T15:28:29.794Z,101065.86
2023-04-27T15:30:58.167Z,101063.27
2023-04-27T15:33:26.894Z,101064.53
2023-04-27T15:35:56.706Z,101066.02
2023-04-27T15:38:26.946Z,101058.38
2023-04-27T15:40:56.580Z,101058.86
2023-04-27T15:43:26.481Z,101055.92
2023-04-27T15:45:55.030Z,101055.27
2023-04-27T15:48:23.185Z,101049.70
2023-04-27T15:50:52.756Z,101055.14
2023-04-27T15:53:22.233Z,101052.16
2023-04-27T15:55:51.994Z,101050.18
2023-04-27T15:58:20.744Z,101050.23
2023-04-27T16:00:50.880Z,101049.83
2023-04-27T16:03:20.765Z,101051.05
2023-04-27T16:05:50.442Z,101046.08
2023-04-27T16:08:20.402Z,101047.23
2023-04-27T16:10:50.276Z,101043.92
2023-04-27T16:13:19.440Z,101046.91
2023-04-27T16:15:48.197Z,101048.83
2023-04-27T16:18:17.796Z,101048.39
2023-04-27T16:20:46.928Z,101048.98
2023-04-27T16:23:16.107Z,101049.83
2023-04-27T16:25:44.890Z,101050.25
2023-04-27T16:28:14.124Z,101045.80
2023-04-27T16:30:42.953Z,101045.45
2023-04-27T16:33:12.267Z,101049.05
2023-04-27T16:35:41.825Z,101047.93
2023-04-27T16:38:10.583Z,101049.20
2023-04-27T16:40:40.100Z,101046.80
2023-04-27T16:43:10.452Z,101044.76
2023-04-27T16:45:39.527Z,101044.92
2023-04-27T16:48:08.906Z,101042.45
2023-04-27T16:50:37.180Z,101040.48
2023-04-27T16:53:11.987Z,101036.45
2023-04-27T16:55:40.930Z,101030.97
2023-04-27T16:58:09.965Z,101042.05
2023-04-27T17:00:38.345Z,101043.82
2023-04-27T17:03:06.616Z,101049.13
2023-04-27T17:05:35.516Z,101045.41
2023-04-27T17:08:05.556Z,101041.43
2023-04-27T17:10:34.677Z,101044.11
2023-04-27T17:13:05.670Z,101044.36
2023-04-27T17:15:34.432Z,101039.38
2023-04-27T17:18:03.696Z,101033.03
2023-04-27T17:20:32.927Z,101029.04
2023-04-27T17:23:01.490Z,101033.32
2023-04-27T17:25:31.486Z,101036.08
2023-04-27T17:28:01.641Z,101035.20
2023-04-27T17:30:30.150Z,101035.58
2023-04-27T17:32:59.789Z,101035.19
2023-04-27T17:35:29.823Z,101032.11
2023-04-27T17:37:59.254Z,101033.91
2023-04-27T17:40:28.051Z,101033.51
2023-04-27T17:42:57.615Z,101033.85
2023-04-27T17:45:27.929Z,101037.18
2023-04-27T17:47:56.639Z,101035.02
2023-04-27T17:50:26.667Z,101029.77
2023-04-27T17:52:55.275Z,101032.20
2023-04-27T17:55:24.681Z,101032.33
2023-04-27T17:57:53.382Z,101037.04
2023-04-27T18:00:22.434Z,101038.07
2023-04-27T18:02:51.182Z,101041.48
2023-04-27T18:05:20.267Z,101041.86
2023-04-27T18:07:48.613Z,101040.30
2023-04-27T18:10:17.485Z,101039.31
2023-04-27T18:12:45.948Z,101038.34
2023-04-27T18:15:14.030Z,101034.78
2023-04-27T18:17:42.287Z,101033.68
2023-04-27T18:20:11.329Z,101030.15
2023-04-27T18:22:40.405Z,101029.66
2023-04-27T18:25:11.688Z,101030.62
2023-04-27T18:27:43.432Z,101032.48
2023-04-27T18:30:13.527Z,101031.27
2023-04-27T18:32:41.664Z,101038.55
2023-04-27T18:35:10.336Z,101041.95
2023-04-27T18:37:39.096Z,101038.20
2023-04-27T18:40:08.070Z,101041.40
2023-04-27T18:42:36.320Z,101043.58
2023-04-27T18:45:05.254Z,101040.51
2023-04-27T18:47:33.782Z,101043.88
2023-04-27T18:50:01.998Z,101041.16
2023-04-27T18:52:30.338Z,101048.84
2023-04-27T18:54:59.005Z,101053.02
2023-04-27T18:57:27.179Z,101052.57
2023-04-27T18:59:55.534Z,101053.20
2023-04-27T19:02:26.365Z,101045.55
2023-04-27T19:05:11.567Z,101047.36
2023-04-27T19:07:41.762Z,101049.88
2023-04-27T19:10:11.977Z,101054.42
2023-04-27T19:12:41.633Z,101058.70
2023-04-27T19:15:10.521Z,101058.54
2023-04-27T19:17:39.549Z,101058.98
2023-04-27T19:20:09.386Z,101067.30
2023-04-27T19:22:37.891Z,101071.46
2023-04-27T19:25:06.804Z,101072.95
2023-04-27T19:27:35.191Z,101073.71
2023-04-27T19:30:04.425Z,101080.34
2023-04-27T19:32:34.202Z,101083.61
2023-04-27T19:35:03.153Z,101085.79
2023-04-27T19:37:31.284Z,101089.05
2023-04-27T19:39:59.659Z,101092.15
2023-04-27T19:42:27.768Z,101093.41
2023-04-27T19:44:56.425Z,101092.19
2023-04-27T19:47:24.627Z,101098.55
2023-04-27T19:49:52.843Z,101101.80
2023-04-27T19:52:20.914Z,101104.83
2023-04-27T19:54:54.148Z,101109.14
2023-04-27T19:57:22.732Z,101112.54
2023-04-27T19:59:50.937Z,101120.95
2023-04-27T20:02:19.544Z,101126.16
2023-04-27T20:04:48.625Z,101126.91
2023-04-27T20:07:17.607Z,101129.08
2023-04-27T20:09:45.859Z,101135.71
2023-04-27T20:12:34.873Z,101137.00
2023-04-27T20:15:04.762Z,101145.41
2023-04-27T20:17:33.015Z,101148.41
2023-04-27T20:20:01.717Z,101152.88
2023-04-27T20:22:30.609Z,101158.23
2023-04-27T20:25:00.287Z,101154.31
2023-04-27T20:27:28.376Z,101159.17
2023-04-27T20:29:56.912Z,101164.17
2023-04-27T20:32:25.175Z,101164.39
2023-04-27T20:34:53.365Z,101169.77
2023-04-27T20:37:22.012Z,101174.40
2023-04-27T20:39:50.285Z,101175.80
2023-04-27T20:42:19.829Z,101181.86
2023-04-27T20:44:47.987Z,101183.27
2023-04-27T20:47:16.406Z,101184.17
2023-04-27T20:49:45.180Z,101186.67
2023-04-27T20:52:13.422Z,101185.95
2023-04-27T20:54:41.720Z,101187.54
2023-04-27T20:57:09.870Z,101188.95
2023-04-27T20:59:39.275Z,101191.97
2023-04-27T21:02:08.559Z,101191.58
2023-04-27T21:04:37.524Z,101194.94
2023-04-27T21:07:07.163Z,101196.34
2023-04-27T21:09:36.547Z,101199.23
2023-04-27T21:12:06.508Z,101197.30
2023-04-27T21:14:35.196Z,101204.14
2023-04-27T21:17:03.557Z,101206.12
2023-04-27T21:19:31.921Z,101208.83
2023-04-27T21:22:01.467Z,101214.27
2023-04-27T21:24:30.454Z,101211.44
2023-04-27T21:27:01.557Z,101212.88
2023-04-27T21:29:30.669Z,101209.72
2023-04-27T21:31:59.595Z,101208.67
2023-04-27T21:34:27.850Z,101209.77
2023-04-27T21:36:57.122Z,101205.46
2023-04-27T21:39:25.815Z,101207.95
2023-04-27T21:41:55.504Z,101211.90
2023-04-27T21:44:23.753Z,101209.55
2023-04-27T21:46:54.068Z,101212.94
2023-04-27T21:49:24.156Z,101215.98
2023-04-27T21:51:52.371Z,101218.70
2023-04-27T21:54:22.345Z,101218.73
2023-04-27T21:56:51.863Z,101221.45
2023-04-27T21:59:21.640Z,101219.13
2023-04-27T22:01:49.871Z,101221.67
2023-04-27T22:04:20.797Z,101224.38
2023-04-27T22:06:50.593Z,101226.20
2023-04-27T22:09:19.592Z,101229.25
2023-04-27T22:11:48.307Z,101225.30
2023-04-27T22:14:17.210Z,101228.17
2023-04-27T22:16:45.782Z,101227.83
2023-04-27T22:19:13.964Z,101225.86
2023-04-27T22:21:42.151Z,101225.51
2023-04-27T22:24:10.533Z,101222.97
2023-04-27T22:26:38.786Z,101221.88
2023-04-27T22:29:06.915Z,101220.97
2023-04-27T22:31:35.458Z,101224.73
2023-04-27T22:34:03.740Z,101224.35
2023-04-27T22:36:32.754Z,101222.23
2023-04-27T22:39:01.039Z,101224.76
2023-04-27T22:41:30.373Z,101222.05
2023-04-27T22:43:59.164Z,101221.31
2023-04-27T22:46:27.621Z,101222.39
2023-04-27T22:48:56.338Z,101222.58
2023-04-27T22:51:25.822Z,101224.71
2023-04-27T22:53:54.646Z,101219.52
2023-04-27T22:56:22.789Z,101223.63
2023-04-27T22:58:50.919Z,101221.30
2023-04-27T23:01:19.614Z,101221.87
2023-04-27T23:03:47.918Z,101215.80
2023-04-27T23:06:16.151Z,101214.59
2023-04-27T23:08:46.094Z,101215.86
2023-04-27T23:11:14.681Z,101217.30
2023-04-27T23:13:44.182Z,101212.99
2023-04-27T23:16:12.506Z,101213.51
2023-04-27T23:18:40.821Z,101211.52
2023-04-27T23:21:09.104Z,101215.98
2023-04-27T23:23:37.421Z,101214.55
2023-04-27T23:26:12.937Z,101217.08
2023-04-27T23:28:42.145Z,101213.14
2023-04-27T23:31:10.809Z,101209.36
2023-04-27T23:33:39.105Z,101205.46
2023-04-27T23:36:07.570Z,101207.98
2023-04-27T23:38:35.818Z,101203.70
2023-04-27T23:41:04.469Z,101209.45
2023-04-27T23:43:34.049Z,101208.55
2023-04-27T23:46:04.472Z,101202.10
2023-04-27T23:48:32.718Z,101203.57
2023-04-27T23:51:03.682Z,101206.13
2023-04-27T23:53:31.867Z,101206.52
2023-04-27T23:56:00.146Z,101201.89
2023-04-27T23:58:28.484Z,101200.78
